createdAt,value
2017-10-23T00:00:36.785Z,13.70
2017-10-23T00:03:03.026Z,14.87
2017-10-23T00:05:30.254Z,13.97
2017-10-23T00:07:56.498Z,16.57
2017-10-23T00:10:22.750Z,19.10
2017-10-23T00:12:48.997Z,14.20
2017-10-23T00:15:16.006Z,17.27
2017-10-23T00:17:42.250Z,17.23
2017-10-23T00:20:08.529Z,11.37
2017-10-23T00:22:35.564Z,15.90
2017-10-23T00:25:01.874Z,14.27
2017-10-23T00:27:28.156Z,9.80
2017-10-23T00:29:54.410Z,16.27
2017-10-23T00:32:20.659Z,12.13
2017-10-23T00:34:46.942Z,10.10
2017-10-23T00:37:13.201Z,16.13
2017-10-23T00:39:40.282Z,14.30
2017-10-23T00:42:06.563Z,12.53
2017-10-23T00:44:32.822Z,13.60
2017-10-23T00:46:59.111Z,18.10
2017-10-23T00:49:25.382Z,12.43
2017-10-23T00:51:51.631Z,17.93
2017-10-23T00:54:18.634Z,17.93
2017-10-23T00:56:44.898Z,12.97
2017-10-23T00:59:11.159Z,20.27
2017-10-23T01:01:38.165Z,13.37
2017-10-23T01:04:04.430Z,17.60
2017-10-23T01:06:31.762Z,15.40
2017-10-23T01:08:58.039Z,19.17
2017-10-23T01:11:25.086Z,14.87
2017-10-23T01:13:52.078Z,17.47
2017-10-23T01:16:18.386Z,11.57
2017-10-23T01:18:44.678Z,15.03
2017-10-23T01:21:10.958Z,18.93
2017-10-23T01:23:37.222Z,16.50
2017-10-23T01:26:03.503Z,21.03
2017-10-23T01:28:29.764Z,18.90
2017-10-23T01:30:56.785Z,14.47
2017-10-23T01:33:23.077Z,21.10
2017-10-23T01:35:49.343Z,11.30
2017-10-23T01:38:16.382Z,16.03
2017-10-23T01:40:42.658Z,11.90
2017-10-23T01:43:09.670Z,15.40
2017-10-23T01:45:35.946Z,19.80
2017-10-23T01:48:02.278Z,14.20
2017-10-23T01:50:29.276Z,15.33
2017-10-23T01:52:55.530Z,9.33
2017-10-23T01:55:21.850Z,15.27
2017-10-23T01:57:48.150Z,11.63
2017-10-23T02:00:14.434Z,13.53
2017-10-23T02:02:40.742Z,9.93
2017-10-23T02:05:07.004Z,11.67
2017-10-23T02:07:39.023Z,10.73
2017-10-23T02:10:06.050Z,11.47
2017-10-23T02:12:32.287Z,11.97
2017-10-23T02:14:58.526Z,9.63
2017-10-23T02:17:25.542Z,9.20
2017-10-23T02:19:51.782Z,16.33
2017-10-23T02:22:18.026Z,7.70
2017-10-23T02:24:45.170Z,12.57
2017-10-23T02:27:11.438Z,12.03
2017-10-23T02:29:37.674Z,12.63
2017-10-23T02:32:06.350Z,12.27
2017-10-23T02:34:32.602Z,9.07
2017-10-23T02:36:58.853Z,13.53
2017-10-23T02:39:25.128Z,13.40
2017-10-23T02:41:51.349Z,10.40
2017-10-23T02:44:17.577Z,10.13
2017-10-23T02:46:43.986Z,13.40
2017-10-23T02:49:10.976Z,15.10
2017-10-23T02:51:37.205Z,12.63
2017-10-23T02:54:03.476Z,17.07
2017-10-23T02:56:29.693Z,14.43
2017-10-23T02:58:55.934Z,16.90
2017-10-23T03:01:22.185Z,18.27
2017-10-23T03:03:48.422Z,16.90
2017-10-23T03:06:14.653Z,21.33
2017-10-23T03:08:41.010Z,14.90
2017-10-23T03:11:07.990Z,19.57
2017-10-23T03:13:34.295Z,18.63
2017-10-23T03:16:00.541Z,24.17
2017-10-23T03:18:27.521Z,23.97
2017-10-23T03:20:53.782Z,23.20
2017-10-23T03:23:20.046Z,20.97
2017-10-23T03:25:46.288Z,22.10
2017-10-23T03:28:13.279Z,22.67
2017-10-23T03:30:39.559Z,21.73
2017-10-23T03:33:05.777Z,24.10
2017-10-23T03:35:32.012Z,20.50
2017-10-23T03:37:58.285Z,21.80
2017-10-23T03:40:24.554Z,29.00
2017-10-23T03:42:50.816Z,24.23
2017-10-23T03:45:17.070Z,20.60
2017-10-23T03:47:43.314Z,31.10
2017-10-23T03:50:09.593Z,18.67
2017-10-23T03:52:36.598Z,25.60
2017-10-23T03:55:02.844Z,22.60
2017-10-23T03:57:29.098Z,21.10
2017-10-23T03:59:55.373Z,18.60
2017-10-23T04:02:21.705Z,23.60
2017-10-23T04:04:47.978Z,19.33
2017-10-23T04:07:14.258Z,15.93
2017-10-23T04:09:41.306Z,22.20
2017-10-23T04:12:07.573Z,18.03
2017-10-23T04:14:33.835Z,22.20
2017-10-23T04:17:00.114Z,18.97
2017-10-23T04:19:27.082Z,24.73
2017-10-23T04:21:53.330Z,14.80
2017-10-23T04:24:19.632Z,21.87
2017-10-23T04:26:46.617Z,16.00
2017-10-23T04:29:12.866Z,18.03
2017-10-23T04:31:39.137Z,14.63
2017-10-23T04:34:06.133Z,13.63
2017-10-23T04:36:32.384Z,19.77
2017-10-23T04:38:58.620Z,15.67
2017-10-23T04:41:25.695Z,16.37
2017-10-23T04:43:51.970Z,13.53
2017-10-23T04:46:18.217Z,17.67
2017-10-23T04:48:44.462Z,18.67
2017-10-23T04:51:10.750Z,19.60
2017-10-23T04:53:37.762Z,17.37
2017-10-23T04:56:04.028Z,15.63
2017-10-23T04:58:30.274Z,17.93
2017-10-23T05:00:58.028Z,14.83
2017-10-23T05:03:24.261Z,18.53
2017-10-23T05:05:50.553Z,16.83
2017-10-23T05:08:16.818Z,18.90
2017-10-23T05:10:43.198Z,27.03
2017-10-23T05:13:10.193Z,23.17
2017-10-23T05:15:36.431Z,22.53
2017-10-23T05:18:02.675Z,18.60
2017-10-23T05:20:28.949Z,19.87
2017-10-23T05:22:55.938Z,22.90
2017-10-23T05:25:22.204Z,17.00
2017-10-23T05:27:48.474Z,21.30
2017-10-23T05:30:15.478Z,54.53
2017-10-23T05:32:41.773Z,20.93
2017-10-23T05:35:08.049Z,19.17
2017-10-23T05:37:34.309Z,20.07
2017-10-23T05:40:00.567Z,21.93
2017-10-23T05:42:27.578Z,19.83
2017-10-23T05:44:53.818Z,19.80
2017-10-23T05:47:20.086Z,23.90
2017-10-23T05:49:46.371Z,22.30
2017-10-23T05:52:12.625Z,17.67
2017-10-23T05:54:38.874Z,27.13
2017-10-23T05:57:05.166Z,18.73
2017-10-23T05:59:31.419Z,27.20
2017-10-23T06:01:57.665Z,23.73
2017-10-23T06:04:23.922Z,26.03
2017-10-23T06:06:50.195Z,23.07
2017-10-23T06:09:17.181Z,39.33
2017-10-23T06:11:43.570Z,27.60
2017-10-23T06:14:10.582Z,25.73
2017-10-23T06:16:36.849Z,25.90
2017-10-23T06:19:03.849Z,31.47
2017-10-23T06:21:30.119Z,33.60
2017-10-23T06:23:56.430Z,28.27
2017-10-23T06:26:22.705Z,42.03
2017-10-23T06:28:49.711Z,40.27
2017-10-23T06:31:15.973Z,34.80
2017-10-23T06:33:42.254Z,36.70
2017-10-23T06:36:09.234Z,35.10
2017-10-23T06:38:35.465Z,32.17
2017-10-23T06:41:01.741Z,36.53
2017-10-23T06:43:27.989Z,39.73
2017-10-23T06:45:54.217Z,33.50
2017-10-23T06:48:21.227Z,29.73
2017-10-23T06:50:47.477Z,32.03
2017-10-23T06:53:13.709Z,38.70
2017-10-23T06:55:39.969Z,37.10
2017-10-23T06:58:07.706Z,32.00
2017-10-23T07:00:33.931Z,32.03
2017-10-23T07:03:00.214Z,35.67
2017-10-23T07:05:26.484Z,78.27
2017-10-23T07:07:52.742Z,49.53
2017-10-23T07:10:19.014Z,48.50
2017-10-23T07:12:45.314Z,35.77
2017-10-23T07:15:11.592Z,44.57
2017-10-23T07:17:38.613Z,30.97
2017-10-23T07:20:04.846Z,33.87
2017-10-23T07:22:31.147Z,33.90
2017-10-23T07:24:57.416Z,38.33
2017-10-23T07:27:23.672Z,30.57
2017-10-23T07:29:49.918Z,42.17
2017-10-23T07:32:16.942Z,41.37
2017-10-23T07:34:43.193Z,35.97
2017-10-23T07:37:10.177Z,28.50
2017-10-23T07:39:37.168Z,31.63
2017-10-23T07:42:03.414Z,26.93
2017-10-23T07:44:31.181Z,33.87
2017-10-23T07:46:57.464Z,43.57
2017-10-23T07:49:23.716Z,35.67
2017-10-23T07:51:49.981Z,35.90
2017-10-23T07:54:16.255Z,27.53
2017-10-23T07:56:43.279Z,30.17
2017-10-23T07:59:09.543Z,22.83
2017-10-23T08:01:36.554Z,18.40
2017-10-23T08:04:03.569Z,33.73
2017-10-23T08:06:30.584Z,39.47
2017-10-23T08:08:56.818Z,35.10
2017-10-23T08:11:23.038Z,32.83
2017-10-23T08:13:49.520Z,24.53
2017-10-23T08:16:16.497Z,30.97
2017-10-23T08:18:42.749Z,23.97
2017-10-23T08:21:09.020Z,30.33
2017-10-23T08:23:36.038Z,23.73
2017-10-23T08:26:02.286Z,27.47
2017-10-23T08:28:28.522Z,25.70
2017-10-23T08:30:54.816Z,31.43
2017-10-23T08:33:21.088Z,23.70
2017-10-23T08:35:47.317Z,32.97
2017-10-23T08:38:13.558Z,25.47
2017-10-23T08:40:39.779Z,20.87
2017-10-23T08:43:05.996Z,19.20
2017-10-23T08:45:32.250Z,21.77
2017-10-23T08:47:58.501Z,28.30
2017-10-23T08:50:24.773Z,25.43
2017-10-23T08:52:51.018Z,28.80
2017-10-23T08:55:18.006Z,25.07
2017-10-23T08:57:44.246Z,33.83
2017-10-23T09:00:10.510Z,26.43
2017-10-23T09:02:36.741Z,32.73
2017-10-23T09:05:02.966Z,25.40
2017-10-23T09:07:30.031Z,23.57
2017-10-23T09:09:56.302Z,26.57
2017-10-23T09:12:23.278Z,23.10
2017-10-23T09:14:49.618Z,33.97
2017-10-23T09:17:16.580Z,33.17
2017-10-23T09:19:42.802Z,29.77
2017-10-23T09:22:09.051Z,25.77
2017-10-23T09:24:35.261Z,22.10
2017-10-23T09:27:01.498Z,22.07
2017-10-23T09:29:27.745Z,34.50
2017-10-23T09:31:53.963Z,28.73
2017-10-23T09:34:20.209Z,33.93
2017-10-23T09:36:46.506Z,31.33
2017-10-23T09:39:12.753Z,23.80
2017-10-23T09:41:39.730Z,25.40
2017-10-23T09:44:05.993Z,24.27
2017-10-23T09:46:32.257Z,18.93
2017-10-23T09:48:59.229Z,16.00
2017-10-23T09:51:26.245Z,16.50
2017-10-23T09:53:52.476Z,20.80
2017-10-23T09:56:18.697Z,21.23
2017-10-23T09:58:44.946Z,13.30
2017-10-23T10:01:11.189Z,20.33
2017-10-23T10:03:38.908Z,15.23
2017-10-23T10:06:05.149Z,19.83
2017-10-23T10:08:31.386Z,17.63
2017-10-23T10:10:57.614Z,14.17
2017-10-23T10:13:23.893Z,17.40
2017-10-23T10:15:51.201Z,20.33
2017-10-23T10:18:18.173Z,22.73
2017-10-23T10:20:44.538Z,19.87
2017-10-23T10:23:10.776Z,24.53
2017-10-23T10:25:37.822Z,23.83
2017-10-23T10:28:04.106Z,19.77
2017-10-23T10:30:30.402Z,20.87
2017-10-23T10:32:56.645Z,25.10
2017-10-23T10:35:23.670Z,34.83
2017-10-23T10:37:49.914Z,28.20
2017-10-23T10:40:16.169Z,33.47
2017-10-23T10:42:42.446Z,20.00
2017-10-23T10:45:08.682Z,27.13
2017-10-23T10:47:34.912Z,25.80
2017-10-23T10:50:01.194Z,23.37
2017-10-23T10:52:27.423Z,23.10
2017-10-23T10:54:54.418Z,23.20
2017-10-23T10:57:21.413Z,18.17
2017-10-23T10:59:47.646Z,23.70
2017-10-23T11:02:14.146Z,19.43
2017-10-23T11:04:40.409Z,18.73
2017-10-23T11:07:06.652Z,16.10
2017-10-23T11:09:32.885Z,17.93
2017-10-23T11:11:59.130Z,23.93
2017-10-23T11:14:25.358Z,22.80
2017-10-23T11:16:51.697Z,24.43
2017-10-23T11:19:17.962Z,32.37
2017-10-23T11:21:44.198Z,26.50
2017-10-23T11:24:10.466Z,36.67
2017-10-23T11:26:37.467Z,19.33
2017-10-23T11:29:03.712Z,25.83
2017-10-23T11:31:29.961Z,17.13
2017-10-23T11:33:56.243Z,13.77
2017-10-23T11:36:22.486Z,11.30
2017-10-23T11:38:48.734Z,21.60
2017-10-23T11:41:14.990Z,17.77
2017-10-23T11:43:41.953Z,16.70
2017-10-23T11:46:08.189Z,15.40
2017-10-23T11:48:34.343Z,13.40
2017-10-23T11:51:01.262Z,19.73
2017-10-23T11:53:27.421Z,11.73
2017-10-23T11:55:54.408Z,23.70
2017-10-23T11:58:20.561Z,7.53
2017-10-23T12:00:46.731Z,5.93
2017-10-23T12:03:13.657Z,8.30
2017-10-23T12:05:39.815Z,11.40
2017-10-23T12:08:06.709Z,5.70
2017-10-23T12:10:32.890Z,6.53
2017-10-23T12:12:59.785Z,9.60
2017-10-23T12:15:25.961Z,4.17
2017-10-23T12:17:52.212Z,8.00
2017-10-23T12:20:19.145Z,7.37
2017-10-23T12:22:46.105Z,3.83
2017-10-23T12:25:13.022Z,7.07
2017-10-23T12:27:39.209Z,3.10
2017-10-23T12:30:06.085Z,3.10
2017-10-23T12:32:32.275Z,3.10
2017-10-23T12:34:59.169Z,8.50
2017-10-23T12:37:25.349Z,2.50
2017-10-23T12:39:53.013Z,6.20
2017-10-23T12:42:19.178Z,5.83
2017-10-23T12:44:46.176Z,2.50
2017-10-23T12:47:12.393Z,4.50
2017-10-23T12:49:38.548Z,4.13
2017-10-23T12:52:04.776Z,3.50
2017-10-23T12:54:31.050Z,4.30
2017-10-23T12:56:57.317Z,4.43
2017-10-23T12:59:23.640Z,5.10
2017-10-23T13:01:49.844Z,4.23
2017-10-23T13:04:16.792Z,7.03
2017-10-23T13:06:43.697Z,3.13
2017-10-23T13:09:09.904Z,4.50
2017-10-23T13:11:36.177Z,4.20
2017-10-23T13:14:03.178Z,5.73
2017-10-23T13:16:29.536Z,3.70
2017-10-23T13:18:55.813Z,2.30
2017-10-23T13:21:22.095Z,4.43
2017-10-23T13:23:49.331Z,6.33
2017-10-23T13:26:15.565Z,6.30
2017-10-23T13:28:41.846Z,2.87
2017-10-23T13:31:08.154Z,4.83
2017-10-23T13:33:34.387Z,3.00
2017-10-23T13:36:01.333Z,5.53
2017-10-23T13:38:27.550Z,3.57
2017-10-23T13:40:53.887Z,3.77
2017-10-23T13:43:20.808Z,5.13
2017-10-23T13:45:46.980Z,6.17
2017-10-23T13:48:13.900Z,7.53
2017-10-23T13:50:40.164Z,4.30
2017-10-23T13:53:07.229Z,7.27
2017-10-23T13:55:33.549Z,2.97
2017-10-23T13:58:00.489Z,3.03
2017-10-23T14:00:26.669Z,3.23
2017-10-23T14:02:52.837Z,3.50
2017-10-23T14:05:19.009Z,7.13
2017-10-23T14:07:45.168Z,5.43
2017-10-23T14:10:11.369Z,6.17
2017-10-23T14:12:38.290Z,16.43
2017-10-23T14:15:04.481Z,13.20
2017-10-23T14:17:30.663Z,12.27
2017-10-23T14:19:56.885Z,3.63
2017-10-23T14:22:23.032Z,2.80
2017-10-23T14:24:49.219Z,6.20
2017-10-23T14:27:15.381Z,9.37
2017-10-23T14:29:41.561Z,4.53
2017-10-23T14:32:08.643Z,3.50
2017-10-23T14:34:35.088Z,4.23
2017-10-23T14:37:01.289Z,11.00
2017-10-23T14:39:28.192Z,5.30
2017-10-23T14:41:54.340Z,7.50
2017-10-23T14:44:20.576Z,4.03
2017-10-23T14:46:46.743Z,4.30
2017-10-23T14:49:13.679Z,4.47
2017-10-23T14:51:40.601Z,5.40
2017-10-23T14:54:06.801Z,8.97
2017-10-23T14:56:32.965Z,7.10
2017-10-23T14:58:59.124Z,6.20
2017-10-23T15:01:26.765Z,3.37
2017-10-23T15:03:53.018Z,4.07
2017-10-23T15:06:19.982Z,4.47
2017-10-23T15:08:47.616Z,20.20
2017-10-23T15:11:13.831Z,8.33
2017-10-23T15:13:40.081Z,4.77
2017-10-23T15:16:06.265Z,3.73
2017-10-23T15:18:32.430Z,3.63
2017-10-23T15:20:58.862Z,5.30
2017-10-23T15:23:25.753Z,6.57
2017-10-23T15:25:51.894Z,9.50
2017-10-23T15:28:18.051Z,8.70
2017-10-23T15:30:44.982Z,7.93
2017-10-23T15:33:11.120Z,7.23
2017-10-23T15:35:37.285Z,6.13
2017-10-23T15:38:04.182Z,4.77
2017-10-23T15:40:30.332Z,10.97
2017-10-23T15:42:56.551Z,4.60
2017-10-23T15:45:23.593Z,4.70
2017-10-23T15:47:49.765Z,4.33
2017-10-23T15:50:15.989Z,4.60
2017-10-23T15:52:42.144Z,4.90
2017-10-23T15:55:09.053Z,4.73
2017-10-23T15:57:35.251Z,5.90
2017-10-23T16:00:01.463Z,6.20
2017-10-23T16:02:27.714Z,6.43
2017-10-23T16:04:53.929Z,6.40
2017-10-23T16:07:20.072Z,5.70
2017-10-23T16:09:47.109Z,6.03
2017-10-23T16:12:13.332Z,5.53
2017-10-23T16:14:39.520Z,6.70
2017-10-23T16:17:05.697Z,6.63
2017-10-23T16:19:33.353Z,5.23
2017-10-23T16:21:59.585Z,6.50
2017-10-23T16:24:25.781Z,7.47
2017-10-23T16:26:52.117Z,5.87
2017-10-23T16:29:18.285Z,9.63
2017-10-23T16:31:44.453Z,7.57
2017-10-23T16:34:11.386Z,8.93
2017-10-23T16:36:37.533Z,5.37
2017-10-23T16:39:04.495Z,6.83
2017-10-23T16:41:30.676Z,6.87
2017-10-23T16:43:56.848Z,7.73
2017-10-23T16:46:22.980Z,7.73
2017-10-23T16:48:51.112Z,8.83
2017-10-23T16:51:17.292Z,8.17
2017-10-23T16:53:44.185Z,8.90
2017-10-23T16:56:10.357Z,7.77
2017-10-23T16:58:36.572Z,8.60
2017-10-23T17:01:03.737Z,7.00
2017-10-23T17:03:30.184Z,8.17
2017-10-23T17:05:57.237Z,8.93
2017-10-23T17:08:24.310Z,12.03
2017-10-23T17:10:50.805Z,10.07
2017-10-23T17:13:17.925Z,10.67
2017-10-23T17:15:44.265Z,11.57
2017-10-23T17:18:10.553Z,9.30
2017-10-23T17:20:36.745Z,11.40
2017-10-23T17:23:02.973Z,11.73
2017-10-23T17:25:29.193Z,12.63
2017-10-23T17:27:56.077Z,15.27
2017-10-23T17:30:22.247Z,53.93
2017-10-23T17:32:49.965Z,40.10
2017-10-23T17:35:16.143Z,12.63
2017-10-23T17:37:42.287Z,12.40
2017-10-23T17:40:09.188Z,18.03
2017-10-23T17:42:35.368Z,10.17
2017-10-23T17:45:02.990Z,10.20
2017-10-23T17:47:29.337Z,9.00
2017-10-23T17:49:55.505Z,9.70
2017-10-23T17:52:21.649Z,10.07
2017-10-23T17:54:48.572Z,9.40
2017-10-23T17:57:14.802Z,9.53
2017-10-23T17:59:40.948Z,10.07
2017-10-23T18:02:07.973Z,15.10
2017-10-23T18:04:34.109Z,12.27
2017-10-23T18:07:00.249Z,13.57
2017-10-23T18:09:26.409Z,10.97
2017-10-23T18:11:52.566Z,10.30
2017-10-23T18:14:19.449Z,14.50
2017-10-23T18:16:45.836Z,83.53
2017-10-23T18:19:12.756Z,62.47
2017-10-23T18:21:38.893Z,60.50
2017-10-23T18:24:05.395Z,28.63
2017-10-23T18:26:31.576Z,18.30
2017-10-23T18:28:57.742Z,11.30
2017-10-23T18:31:24.637Z,12.17
2017-10-23T18:33:50.768Z,11.97
2017-10-23T18:36:16.919Z,11.37
2017-10-23T18:38:43.094Z,12.30
2017-10-23T18:41:09.248Z,20.27
2017-10-23T18:43:35.385Z,12.80
2017-10-23T18:46:01.580Z,12.47
2017-10-23T18:48:27.745Z,11.73
2017-10-23T18:50:53.886Z,13.17
2017-10-23T18:53:20.077Z,15.77
2017-10-23T18:55:46.988Z,16.50
2017-10-23T18:58:13.145Z,11.93
2017-10-23T19:00:39.290Z,11.40
2017-10-23T19:03:05.470Z,12.33
2017-10-23T19:05:31.641Z,16.60
2017-10-23T19:07:57.815Z,14.23
2017-10-23T19:10:23.974Z,16.57
2017-10-23T19:12:50.120Z,16.70
2017-10-23T19:15:16.325Z,15.77
2017-10-23T19:17:42.477Z,17.93
2017-10-23T19:20:08.646Z,13.80
2017-10-23T19:22:34.856Z,36.43
2017-10-23T19:25:01.260Z,81.90
2017-10-23T19:27:27.424Z,95.50
2017-10-23T19:29:53.591Z,30.97
2017-10-23T19:32:20.478Z,29.37
2017-10-23T19:34:46.645Z,35.13
2017-10-23T19:37:12.963Z,17.30
2017-10-23T19:39:39.114Z,15.60
2017-10-23T19:42:05.316Z,15.30
2017-10-23T19:44:31.528Z,14.00
2017-10-23T19:46:58.420Z,17.70
2017-10-23T19:49:24.581Z,17.50
2017-10-23T19:51:51.490Z,19.70
2017-10-23T19:54:17.637Z,18.93
2017-10-23T19:56:43.810Z,16.87
2017-10-23T19:59:10.729Z,80.33
2017-10-23T20:01:36.885Z,38.67
2017-10-23T20:04:03.052Z,24.17
2017-10-23T20:06:29.206Z,17.87
2017-10-23T20:08:55.364Z,19.50
2017-10-23T20:11:21.529Z,15.00
2017-10-23T20:13:47.911Z,17.63
2017-10-23T20:16:14.079Z,22.63
2017-10-23T20:18:40.240Z,18.93
2017-10-23T20:21:07.162Z,17.53
2017-10-23T20:23:33.353Z,25.73
2017-10-23T20:25:59.581Z,19.20
2017-10-23T20:28:25.942Z,17.40
2017-10-23T20:30:52.097Z,14.17
2017-10-23T20:33:18.287Z,19.20
2017-10-23T20:35:44.447Z,16.80
2017-10-23T20:38:10.601Z,18.03
2017-10-23T20:40:36.754Z,21.60
2017-10-23T20:43:03.847Z,17.30
2017-10-23T20:45:29.994Z,18.50
2017-10-23T20:47:56.221Z,17.97
2017-10-23T20:50:22.412Z,19.93
2017-10-23T20:52:48.582Z,19.00
2017-10-23T20:55:14.738Z,19.57
2017-10-23T20:57:40.928Z,20.93
2017-10-23T21:00:07.173Z,20.90
2017-10-23T21:02:33.309Z,26.50
2017-10-23T21:04:59.485Z,23.37
2017-10-23T21:07:25.629Z,22.23
2017-10-23T21:09:51.786Z,20.13
2017-10-23T21:12:18.843Z,25.43
2017-10-23T21:14:45.001Z,21.73
2017-10-23T21:17:11.206Z,22.63
2017-10-23T21:19:38.126Z,22.70
2017-10-23T21:22:05.029Z,51.13
2017-10-23T21:24:31.181Z,108.57
2017-10-23T21:26:57.466Z,52.87
2017-10-23T21:29:24.353Z,40.03
2017-10-23T21:31:50.520Z,30.07
2017-10-23T21:34:16.932Z,22.83
2017-10-23T21:36:43.087Z,22.17
2017-10-23T21:39:09.239Z,25.73
2017-10-23T21:41:35.502Z,26.20
2017-10-23T21:44:01.651Z,22.40
2017-10-23T21:46:40.181Z,19.23
2017-10-23T21:49:06.330Z,21.47
2017-10-23T21:51:32.491Z,25.10
2017-10-23T21:53:59.400Z,23.13
2017-10-23T21:56:25.529Z,22.73
2017-10-23T21:58:51.693Z,22.73
2017-10-23T22:01:17.886Z,28.53
2017-10-23T22:03:44.033Z,23.00
2017-10-23T22:06:10.181Z,22.97
2017-10-23T22:08:36.409Z,27.17
2017-10-23T22:11:02.569Z,23.73
2017-10-23T22:13:28.740Z,24.63
2017-10-23T22:15:54.928Z,20.23
2017-10-23T22:18:21.070Z,22.07
2017-10-23T22:20:47.954Z,25.70
2017-10-23T22:23:14.138Z,23.90
2017-10-23T22:25:40.318Z,24.50
2017-10-23T22:28:06.620Z,24.07
2017-10-23T22:30:33.564Z,22.80
2017-10-23T22:33:00.446Z,24.73
2017-10-23T22:35:26.621Z,23.03
2017-10-23T22:37:52.873Z,25.03
2017-10-23T22:40:19.033Z,23.30
2017-10-23T22:42:45.232Z,27.20
2017-10-23T22:45:11.653Z,22.43
2017-10-23T22:47:37.805Z,24.93
2017-10-23T22:50:04.765Z,26.43
2017-10-23T22:52:31.120Z,27.13
2017-10-23T22:54:57.292Z,25.53
2017-10-23T22:57:23.473Z,24.80
2017-10-23T22:59:50.417Z,25.87
2017-10-23T23:02:16.600Z,27.37
2017-10-23T23:04:42.796Z,24.33
2017-10-23T23:07:08.948Z,25.87
2017-10-23T23:09:35.870Z,32.07
2017-10-23T23:12:02.056Z,26.90
2017-10-23T23:14:28.252Z,25.23
2017-10-23T23:16:55.169Z,27.63
2017-10-23T23:19:21.381Z,25.40
2017-10-23T23:21:47.712Z,31.50
2017-10-23T23:24:13.904Z,26.87
2017-10-23T23:26:40.826Z,28.67
2017-10-23T23:29:07.138Z,31.80
2017-10-23T23:31:33.312Z,25.80
2017-10-23T23:33:59.454Z,24.27
2017-10-23T23:36:25.636Z,27.77
2017-10-23T23:38:51.837Z,29.10
2017-10-23T23:41:18.751Z,28.57
2017-10-23T23:43:44.937Z,29.90
2017-10-23T23:46:11.828Z,34.53
2017-10-23T23:48:38.012Z,26.73
2017-10-23T23:51:04.229Z,32.63
2017-10-23T23:53:31.167Z,34.20
2017-10-23T23:55:58.800Z,34.37
2017-10-23T23:58:24.956Z,33.33
